avr
26

MOTOCROSS MONDIAL – GP’S MX1 & MX2 AU BENELUX : TOUS LES RÉSULTATS DU DIMANCHE..!

youthstreambeneluxgp09

UN GP POUR KTM : RUI GONCALVES ET JONATHAN BARRAGAN REMPORTENT LEURS CATÉGORIES..!

MX1 – Warm-up Classification
Pos Nr Rider Nat. Fed. Bike Bestlaptime in lap Diff. First Diff. Prev. Tot. Laps Speed

1 222 Cairoli, Antonio ITA FMI Yamaha 1:52.230 8 0:00.000 0:00.000 8 49.719
2 14 de Reuver, Marc NED KNMV Honda 1:52.376 5 0:00.146 0:00.146 5 49.655
3 8 Leok, Tanel EST EMF Yamaha 1:52.701 6 0:00.471 0:00.325 6 49.512
4 7 Barragan, Jonathan ESP RFME KTM 1:53.755 6 0:01.525 0:01.054 7 49.053
5 19 Philippaerts, David ITA FMI Yamaha 1:54.190 6 0:01.960 0:00.435 8 48.866
6 100 Strijbos, Kevin BEL FMB Honda 1:54.246 3 0:02.016 0:00.056 8 48.842
7 11 Ramon, Steve BEL FMB Suzuki 1:54.556 8 0:02.326 0:00.310 8 48.71
8 9 de Dycker, Ken BEL FMB Suzuki 1:55.387 2 0:03.157 0:00.831 7 48.359
9 111 Leok, Aigar EST EMF TM 1:55.505 7 0:03.275 0:00.118 7 48.31
10 16 Noble, James GBR ACU Suzuki 1:55.597 7 0:03.367 0:00.092 8 48.271
11 6 Coppins, Joshua NZL MNZ Yamaha 1:55.613 4 0:03.383 0:00.016 7 48.264
12 20 Aranda, Gregory FRA FFM Kawasaki 1:55.706 4 0:03.476 0:00.093 6 48.226
13 10 Melotte, Cedric BEL FMB Honda 1:55.729 7 0:03.499 0:00.023 8 48.216
14 25 Desalle, Clement BEL FMB Honda 1:55.800 5 0:03.570 0:00.071 8 48.187
15 17 Swanepoel, Gareth RSA MSA Kawasaki 1:56.117 4 0:03.887 0:00.317 8 48.055
16 37 Krestinov, Gert EST EMF KTM 1:56.452 4 0:04.222 0:00.335 6 47.917
17 5 Nagl, Maximilian GER DMSB KTM 1:56.738 7 0:04.508 0:00.286 8 47.799
18 56 van Vijfeijken, Rob NED KNMV Yamaha 1:56.914 5 0:04.684 0:00.176 7 47.727
19 211 Mackenzie, Billy GBR ACU Honda 1:56.955 3 0:04.725 0:00.041 6 47.711
20 115 Campano, Carlos ESP RFME Yamaha 1:57.163 7 0:04.933 0:00.208 7 47.626
21 12 Vuillemin, David FRA FFM Kawasaki 1:57.548 6 0:05.318 0:00.385 6 47.47
22 46 Dougan, Jason GBR ACU CCM 1:57.847 3 0:05.617 0:00.299 7 47.35
23 24 Church, Tom GBR ACU CCM 1:58.275 4 0:06.045 0:00.428 5 47.178
24 15 Bill, Julien SUI FMS Aprilia 1:58.356 6 0:06.126 0:00.081 6 47.146
25 75 Wouts, Kevin BEL FMB Honda 1:58.528 4 0:06.298 0:00.172 7 47.077
26 33 Carlsson, Johan SWE SVEMO Suzuki 1:58.548 5 0:06.318 0:00.020 8 47.07
27 32 Priem, Manuel BEL FMB Aprilia 1:58.851 5 0:06.621 0:00.303 8 46.95
28 80 Eggens, Erik NED KNMV Suzuki 1:59.000 4 0:06.770 0:00.149 4 46.891
29 23 Kempelis, Filips LAT LAMSF Honda 1:59.064 6 0:06.834 0:00.064 7 46.866
30 77 Terreblanche, Shannon RSA MSA Kawasaki 2:00.167 5 0:07.937 0:01.103 5 46.435
31 60 Anderson, Bradley GBR ACU Honda 2:00.288 4 0:08.058 0:00.121 6 46.389
32 74 Steinbergs, Ivo LAT LAMSF Honda 2:01.284 3 0:09.054 0:00.996 6 46.008
33 45 Leonce, Loic FRA FFM Aprilia 2:03.671 7 0:11.441 0:02.387 7 45.12

MX1 – Grand Prix Race 1 Classification
Pos Nr Rider Nat. Fed. Bike Time laps Diff. First Diff. Prev. Bestlaptime in lap Speed

1 222 Cairoli, Antonio ITA FMI Yamaha 39:47.158 19 0:00.000 0:00.000 1:57.975 6 47.298
2 14 de Reuver, Marc NED KNMV Honda 39:51.444 19 0:04.286 0:04.286 1:56.690 1 47.819
3 7 Barragan, Jonathan ESP RFME KTM 39:54.341 19 0:07.183 0:02.897 1:58.430 10 47.116
4 9 de Dycker, Ken BEL FMB Suzuki 39:55.708 19 0:08.550 0:01.367 1:57.850 13 47.348
5 8 Leok, Tanel EST EMF Yamaha 39:56.966 19 0:09.808 0:01.258 1:58.182 4 47.215
6 19 Philippaerts, David ITA FMI Yamaha 39:57.097 19 0:09.939 0:00.131 1:56.748 3 47.795
7 100 Strijbos, Kevin BEL FMB Honda 40:04.367 19 0:17.209 0:07.270 1:58.189 4 47.213
8 211 Mackenzie, Billy GBR ACU Honda 40:11.098 19 0:23.940 0:06.731 1:56.140 2 48.045
9 25 Desalle, Clement BEL FMB Honda 40:26.266 19 0:39.108 0:15.168 1:58.632 6 47.036
10 6 Coppins, Joshua NZL MNZ Yamaha 40:38.123 19 0:50.965 0:11.857 1:59.742 8 46.6
11 5 Nagl, Maximilian GER DMSB KTM 40:45.844 19 0:58.686 0:07.721 1:58.391 5 47.132
12 10 Melotte, Cedric BEL FMB Honda 41:07.061 19 1:19.903 0:21.217 1:58.015 1 47.282
13 11 Ramon, Steve BEL FMB Suzuki 41:09.186 19 1:22.028 0:02.125 1:57.635 3 47.435
14 16 Noble, James GBR ACU Suzuki 41:09.402 19 1:22.244 0:00.216 2:00.682 2 46.237
15 60 Anderson, Bradley GBR ACU Honda 41:16.109 19 1:28.951 0:06.707 2:01.195 6 46.042
16 111 Leok, Aigar EST EMF TM 41:22.335 19 1:35.177 0:06.226 2:02.292 2 45.628
17 37 Krestinov, Gert EST EMF KTM 41:25.098 19 1:37.940 0:02.763 2:01.671 4 45.861
18 56 van Vijfeijken, Rob NED KNMV Yamaha 39:51.715 18 1 lap(s) 1 lap(s) 2:02.633 4 45.502
19 46 Dougan, Jason GBR ACU CCM 40:19.223 18 1 lap(s) 0:27.508 2:03.407 8 45.216
20 75 Wouts, Kevin BEL FMB Honda 40:20.763 18 1 lap(s) 0:01.540 2:02.350 2 45.607
21 45 Leonce, Loic FRA FFM Aprilia 40:35.793 18 1 lap(s) 0:15.030 2:02.636 1 45.501
22 24 Church, Tom GBR ACU CCM 40:57.693 18 1 lap(s) 0:21.900 2:02.516 3 45.545
23 74 Steinbergs, Ivo LAT LAMSF Honda 39:38.644 17 2 lap(s) 1 lap(s) 2:07.102 2 43.902
24 17 Swanepoel, Gareth RSA MSA Kawasaki 40:42.655 17 2 lap(s) 1:04.011 2:00.751 13 46.211
25 23 Kempelis, Filips LAT LAMSF Honda 40:09.562 16 3 lap(s) 1 lap(s) 2:08.460 4 43.438
26 115 Campano, Carlos ESP RFME Yamaha 33:37.885 15 4 lap(s) 1 lap(s) 2:02.561 3 45.528
27 33 Carlsson, Johan SWE SVEMO Suzuki 30:20.438 13 6 lap(s) 2 lap(s) 2:04.797 3 44.713
28 32 Priem, Manuel BEL FMB Aprilia 21:13.576 9 10 lap(s) 4 lap(s) 1:58.602 3 47.048
29 20 Aranda, Gregory FRA FFM Kawasaki 14:22.157 6 13 lap(s) 3 lap(s) 2:01.585 3 45.894
30 77 Terreblanche, Shannon RSA MSA Kawasaki 15:55.011 6 13 lap(s) 1:32.854 2:04.036 2 44.987
31 15 Bill, Julien SUI FMS Aprilia 18:07.383 6 13 lap(s) 2:12.372 2:04.024 2 44.991
32 80 Eggens, Erik NED KNMV Suzuki 11:01.973 4 15 lap(s) 2 lap(s) 2:02.867 1 45.415
33 12 Vuillemin, David FRA FFM Kawasaki 4:51.529 1 18 lap(s) 3 lap(s) 2:13.512 1 41.794

MX1 – Grand Prix Race 2 Classification
Pos Nr Rider Nat. Fed. Bike Time laps Diff. First Diff. Prev. Bestlaptime in lap Speed

1 7 Barragan, Jonathan ESP RFME KTM 40:18.300 19 0:00.000 0:00.000 1:59.032 15 46.878
2 8 Leok, Tanel EST EMF Yamaha 40:24.749 19 0:06.449 0:06.449 1:59.444 18 46.716
3 222 Cairoli, Antonio ITA FMI Yamaha 40:39.639 19 0:21.339 0:14.890 1:58.653 6 47.028
4 100 Strijbos, Kevin BEL FMB Honda 40:45.457 19 0:27.157 0:05.818 1:59.941 7 46.523
5 6 Coppins, Joshua NZL MNZ Yamaha 40:55.550 19 0:37.250 0:10.093 2:00.409 5 46.342
6 19 Philippaerts, David ITA FMI Yamaha 41:01.342 19 0:43.042 0:05.792 2:00.012 2 46.495
7 11 Ramon, Steve BEL FMB Suzuki 41:04.674 19 0:46.374 0:03.332 1:59.204 8 46.811
8 25 Desalle, Clement BEL FMB Honda 41:36.427 19 1:18.127 0:31.753 1:57.664 5 47.423
9 9 de Dycker, Ken BEL FMB Suzuki 41:49.876 19 1:31.576 0:13.449 1:59.869 3 46.551
10 111 Leok, Aigar EST EMF TM 41:53.294 19 1:34.994 0:03.418 2:02.035 5 45.725
11 37 Krestinov, Gert EST EMF KTM 41:55.182 19 1:36.882 0:01.888 2:00.922 1 46.145
12 17 Swanepoel, Gareth RSA MSA Kawasaki 41:58.770 19 1:40.470 0:03.588 2:02.744 8 45.46
13 12 Vuillemin, David FRA FFM Kawasaki 42:00.518 19 1:42.218 0:01.748 2:04.095 5 44.966
14 211 Mackenzie, Billy GBR ACU Honda 42:02.321 19 1:44.021 0:01.803 2:00.325 2 46.374
15 56 van Vijfeijken, Rob NED KNMV Yamaha 42:21.710 19 2:03.410 0:19.389 2:04.159 5 44.942
16 16 Noble, James GBR ACU Suzuki 40:20.092 18 1 lap(s) 1 lap(s) 2:01.144 2 46.061
17 5 Nagl, Maximilian GER DMSB KTM 40:29.352 18 1 lap(s) 0:09.260 1:58.370 1 47.14
18 46 Dougan, Jason GBR ACU CCM 41:07.251 18 1 lap(s) 0:37.899 2:02.727 2 45.467
19 33 Carlsson, Johan SWE SVEMO Suzuki 41:17.844 18 1 lap(s) 0:10.593 2:05.690 2 44.395
20 75 Wouts, Kevin BEL FMB Honda 41:28.286 18 1 lap(s) 0:10.442 2:04.704 4 44.746
21 23 Kempelis, Filips LAT LAMSF Honda 42:09.333 18 1 lap(s) 0:41.047 2:09.171 8 43.199
22 74 Steinbergs, Ivo LAT LAMSF Honda 42:38.133 18 1 lap(s) 0:28.800 2:10.275 6 42.832
23 24 Church, Tom GBR ACU CCM 38:55.456 16 3 lap(s) 2 lap(s) 2:05.936 5 44.308
24 77 Terreblanche, Shannon RSA MSA Kawasaki 31:21.744 13 6 lap(s) 3 lap(s) 2:06.030 2 44.275
25 20 Aranda, Gregory FRA FFM Kawasaki 23:34.886 10 9 lap(s) 3 lap(s) 2:03.351 1 45.237
26 15 Bill, Julien SUI FMS Aprilia 24:45.716 9 10 lap(s) 1 lap(s) 2:06.274 2 44.19
27 45 Leonce, Loic FRA FFM Aprilia 15:31.278 6 13 lap(s) 3 lap(s) 2:08.435 2 43.446
28 115 Campano, Carlos ESP RFME Yamaha 15:53.316 6 13 lap(s) 0:22.038 2:04.060 2 44.978
29 60 Anderson, Bradley GBR ACU Honda 13:09.017 5 14 lap(s) 1 lap(s) 2:02.971 2 45.377
30 14 de Reuver, Marc NED KNMV Honda 12:48.265 4 15 lap(s) 1 lap(s) 2:00.287 2 46.389
31 32 Priem, Manuel BEL FMB Aprilia 4:52.547 1 18 lap(s) 3 lap(s) 2:24.701 1 38.562

barraganbenelux0409

MX1 GP Classification
Pos Nr Rider Nat. Fed. Bike Race 1 Race 2 Total

1 7 Barragan, Jonathan ESP RFME KTM 20 25 45
2 222 Cairoli, Antonio ITA FMI Yamaha 25 20 45
3 8 Leok, Tanel EST EMF Yamaha 16 22 38
4 100 Strijbos, Kevin BEL FMB Honda 14 18 32
5 19 Philippaerts, David ITA FMI Yamaha 15 15 30
6 9 de Dycker, Ken BEL FMB Suzuki 18 12 30
7 6 Coppins, Joshua NZL MNZ Yamaha 11 16 27
8 25 Desalle, Clement BEL FMB Honda 12 13 25
9 11 Ramon, Steve BEL FMB Suzuki 8 14 22
10 14 de Reuver, Marc NED KNMV Honda 22 0 22
11 211 Mackenzie, Billy GBR ACU Honda 13 7 20
12 111 Leok, Aigar EST EMF TM 5 11 16
13 37 Krestinov, Gert EST EMF KTM 4 10 14
14 5 Nagl, Maximilian GER DMSB KTM 10 4 14
15 16 Noble, James GBR ACU Suzuki 7 5 12
16 17 Swanepoel, Gareth RSA MSA Kawasaki 0 9 9
17 56 van Vijfeijken, Rob NED KNMV Yamaha 3 6 9
18 10 Melotte, Cedric BEL FMB Honda 9 0 9
19 12 Vuillemin, David FRA FFM Kawasaki 0 8 8
20 60 Anderson, Bradley GBR ACU Honda 6 0 6
21 46 Dougan, Jason GBR ACU CCM 2 3 5
22 33 Carlsson, Johan SWE SVEMO Suzuki 0 2 2
23 75 Wouts, Kevin BEL FMB Honda 1 1 2
24 23 Kempelis, Filips LAT LAMSF Honda 0 0 0
25 74 Steinbergs, Ivo LAT LAMSF Honda 0 0 0
26 24 Church, Tom GBR ACU CCM 0 0 0
27 77 Terreblanche, Shannon RSA MSA Kawasaki 0 0 0
28 20 Aranda, Gregory FRA FFM Kawasaki 0 0 0
29 15 Bill, Julien SUI FMS Aprilia 0 0 0
30 45 Leonce, Loic FRA FFM Aprilia 0 0 0
31 115 Campano, Carlos ESP RFME Yamaha 0 0 0
32 32 Priem, Manuel BEL FMB Aprilia 0 0 0
33 80 Eggens, Erik NED KNMV Suzuki 0 0 0

MX1 World Championship Classification
Pos Nr Rider Nat. Total ITA BUL TUR BEN POR CAT GBR FRA GER LAT SWE BEL CZE NED BRA

1 222 Cairoli, A. ITA 143 16-0 14-18 25-25 25-20 - - - - - - - - - - - - - - - - - - - - - - - -
2 7 Barragan, J. ESP 128 11-0 18-25 14-15 20-25 - - - - - - - - - - - - - - - - - - - - - - - -
3 9 de Dycker, Ken BEL 124 22-0 25-13 16-18 18-12 - - - - - - - - - - - - - - - - - - - - - - - -
4 19 Philippaerts, D. ITA 118 12-0 16-20 18-22 15-15 - - - - - - - - - - - - - - - - - - - - - - - -
5 6 Coppins, J. NZL 112 15-0 22-22 13-13 11-16 - - - - - - - - - - - - - - - - - - - - - - - -
6 8 Leok, Tanel EST 111 25-0 15-15 2-16 16-22 - - - - - - - - - - - - - - - - - - - - - - - -
7 11 Ramon, Steve BEL 100 9-0 13-14 22-20 8-14 - - - - - - - - - - - - - - - - - - - - - - - -
8 5 Nagl, M. GER 87 14-0 20-16 15-8 10-4 - - - - - - - - - - - - - - - - - - - - - - - -
9 25 Desalle, C. BEL 86 20-0 11-6 12-12 12-13 - - - - - - - - - - - - - - - - - - - - - - - -
10 100 Strijbos, K. BEL 82 4-0 12-0 20-14 14-18 - - - - - - - - - - - - - - - - - - - - - - - -
11 111 Leok, Aigar EST 48 18-0 0-5 5-4 5-11 - - - - - - - - - - - - - - - - - - - - - - - -
12 12 Vuillemin, D. FRA 48 2-0 10-10 11-7 0-8 - - - - - - - - - - - - - - - - - - - - - - - -
13 14 de Reuver, M. NED 45 7-0 9-0 7-0 22-0 - - - - - - - - - - - - - - - - - - - - - - - -
14 17 Swanepoel, G. RSA 43 8-0 0-11 10-5 0-9 - - - - - - - - - - - - - - - - - - - - - - - -
15 211 Mackenzie, B. GBR 42 0-0 0-12 9-1 13-7 - - - - - - - - - - - - - - - - - - - - - - - -
16 16 Noble, James GBR 39 3-0 7-8 0-9 7-5 - - - - - - - - - - - - - - - - - - - - - - - -
17 90 Pourcel, S. FRA 26 0-0 6-9 0-11 - - - - - - - - - - - - - - - - - - - - - - - - - -
18 32 Priem, Manuel BEL 23 0-0 8-7 8-0 0-0 - - - - - - - - - - - - - - - - - - - - - - - -
19 37 Krestinov, G. EST 22 0-0 3-3 0-2 4-10 - - - - - - - - - - - - - - - - - - - - - - - -
20 15 Bill, J. SUI 22 6-0 0-4 6-6 0-0 - - - - - - - - - - - - - - - - - - - - - - - -
21 46 Dougan, Jason GBR 17 10-0 1-0 1-0 2-3 - - - - - - - - - - - - - - - - - - - - - - - -
22 24 Church, Tom GBR 15 13-0 2-0 - - 0-0 - - - - - - - - - - - - - - - - - - - - - - - -
23 20 Aranda, G. FRA 15 0-0 5-0 0-10 0-0 - - - - - - - - - - - - - - - - - - - - - - - -
24 56 van Vijfeijken, R. NED 11 0-0 0-2 0-0 3-6 - - - - - - - - - - - - - - - - - - - - - - - -
25 10 Melotte, C. BEL 10 1-0 0-0 - - 9-0 - - - - - - - - - - - - - - - - - - - - - - - -
26 75 Wouts, Kevin BEL 8 5-0 0-1 0-0 1-1 - - - - - - - - - - - - - - - - - - - - - - - -
27 57 Neugebauer, F. CZE 7 0-0 - - 4-3 - - - - - - - - - - - - - - - - - - - - - - - - - -
28 60 Anderson, B. GBR 6 - - - - - - 6-0 - - - - - - - - - - - - - - - - - - - - - - - -
29 77 Terreblanche, S. RSA 4 0-0 4-0 - - 0-0 - - - - - - - - - - - - - - - - - - - - - - - -
30 115 Campano, C. ESP 3 0-0 0-0 3-0 0-0 - - - - - - - - - - - - - - - - - - - - - - - -
31 33 Carlsson, J. SWE 2 0-0 0-0 0-0 0-2 - - - - - - - - - - - - - - - - - - - - - - - -
32 45 Leonce, Loic FRA 0 0-0 0-0 0-0 0-0 - - - - - - - - - - - - - - - - - - - - - - - -
33 23 Kempelis, F. LAT 0 0-0 0-0 0-0 0-0 - - - - - - - - - - - - - - - - - - - - - - - -
34 74 Steinbergs, I. LAT 0 0-0 0-0 0-0 0-0 - - - - - - - - - - - - - - - - - - - - - - - -
35 116 Fortuna, A. SLO 0 - - - - 0-0 - - - - - - - - - - - - - - - - - - - - - - - - - -
36 28 Salvini, Alex ITA 0 0-0 - - - - - - - - - - - - - - - - - - - - - - - - - - - - - -
37 80 Eggens, Erik NED 0 - - - - - - 0-0 - - - - - - - - - - - - - - - - - - - - - - - -
38 122 Tiveddu, A. ITA 0 0-0 - - - - - - - - - - - - - - - - - - - - - - - - - - - - - -

MX2 – Warm-up Classification
Pos Nr Rider Nat. Fed. Bike Bestlaptime in lap Diff. First Diff. Prev. Tot. Laps Speed

1 4 Simpson, Shaun GBR MCUI KTM 1:53.828 4 0:00.000 0:00.000 8 49.021
2 3 Aubin, Nicolas FRA FFM Yamaha 1:54.081 5 0:00.253 0:00.253 7 48.913
3 5 Goncalves, Rui POR FNM KTM 1:54.516 5 0:00.688 0:00.435 8 48.727
4 338 Osborne, Zach USA ACU Yamaha 1:54.659 7 0:00.831 0:00.143 8 48.666
5 183 Frossard, Steven FRA FFM Kawasaki 1:55.016 6 0:01.188 0:00.357 7 48.515
6 25 Musquin, Marvin FRA FFM Honda 1:55.028 5 0:01.200 0:00.012 7 48.51

7 27 Schiffer, Marcus GER DMSB KTM 1:55.059 5 0:01.231 0:00.031 6 48.497
8 121 Boog, Xavier FRA FFM Suzuki 1:55.218 7 0:01.390 0:00.159 9 48.43
9 34 Roelants, Joel BEL FMB KTM 1:55.427 6 0:01.599 0:00.209 9 48.342
10 45 Nicholls, Jake GBR ACU KTM 1:55.717 4 0:01.889 0:00.290 6 48.221
11 202 Larrieu, Loic FRA FFM Yamaha 1:55.761 6 0:01.933 0:00.044 6 48.203
12 89 van Horebeek, Jeremy BEL FMB KTM 1:55.766 6 0:01.938 0:00.005 7 48.201
13 91 Karro, Matiss LAT LAMSF Suzuki 1:55.957 5 0:02.129 0:00.191 8 48.121
14 23 Tonus, Arnaud SUI FMS KTM 1:56.001 5 0:02.173 0:00.044 7 48.103
15 13 Monni, Manuel ITA FMI Yamaha 1:56.054 6 0:02.226 0:00.053 7 48.081
16 7 Sword, Stephen GBR ACU KTM 1:56.355 6 0:02.527 0:00.301 7 47.957
17 56 Bobryshev, Evgeny RUS MFR Yamaha 1:56.359 5 0:02.531 0:00.004 8 47.955
18 501 Lupino, Alessandro ITA FMI Yamaha 1:56.483 4 0:02.655 0:00.124 5 47.904
19 175 Larsen, Nikolai DEN DMU Suzuki 1:56.516 7 0:02.688 0:00.033 7 47.89
20 21 Paulin, Gautier FRA MCM Kawasaki 1:56.529 3 0:02.701 0:00.013 5 47.885
21 75 Triest, Nick BEL FMB KTM 1:56.817 6 0:02.989 0:00.288 8 47.767
22 18 Brakke, Herjan NED KNMV Honda 1:56.862 8 0:03.034 0:00.045 8 47.749
23 64 Vongsana, Khounsith FRA FFM Honda 1:56.969 7 0:03.141 0:00.107 7 47.705
24 30 Klein Kromhof, Ceriel NED KNMV KTM 1:57.092 3 0:03.264 0:00.123 8 47.655
25 39 Guarneri, Davide ITA FMI Yamaha 1:57.539 4 0:03.711 0:00.447 6 47.474
26 335 Verbruggen, Dennis BEL FMB Honda 1:57.548 6 0:03.720 0:00.009 8 47.47
27 33 Soubeyras, Cedric FRA FFM Yamaha 1:57.570 4 0:03.742 0:00.022 7 47.461
28 119 Pocock, Mel GBR ACU Yamaha 1:57.692 5 0:03.864 0:00.122 6 47.412
29 69 Avis, Wyatt RSA MSA Honda 1:57.776 3 0:03.948 0:00.084 7 47.378
30 47 Leuret, Pascal FRA FFM Honda 1:58.377 5 0:04.549 0:00.601 7 47.138
31 519 Rombaut, Loic FRA FFM Kawasaki 1:59.326 2 0:05.498 0:00.949 7 46.763
32 685 Lenoir, Steven FRA FFM Yamaha 1:59.334 7 0:05.506 0:00.008 7 46.76

33 55 Kras, Mike NED KNMV KTM 1:59.341 2 0:05.513 0:00.007 9 46.757
34 51 Smitka, Petr CZE ACCR KTM 1:59.432 5 0:05.604 0:00.091 8 46.721
35 131 Michek, Martin CZE ACCR TM 1:59.787 3 0:05.959 0:00.355 7 46.583
36 44 Kojima, Yohei JPN MFJ Suzuki 1:59.974 7 0:06.146 0:00.187 7 46.51
37 153 Maddii, Marco ITA FMI Suzuki 2:00.524 4 0:06.696 0:00.550 5 46.298
38 14 Philippaerts, Deny ITA FMI Yamaha 2:01.684 6 0:07.856 0:01.160 7 45.856
39 17 Clermont, Jason FRA FFM Honda 2:03.329 7 0:09.501 0:01.645 7 45.245

MX2 – Grand Prix Race 1 Classification
Pos Nr Rider Nat. Fed. Bike Time laps Diff. First Diff. Prev. Bestlaptime in lap Speed

1 4 Simpson, Shaun GBR MCUI KTM 39:30.097 19 0:00.000 0:00.000 1:55.370 1 48.366
2 5 Goncalves, Rui POR FNM KTM 39:49.789 19 0:19.692 0:19.692 1:55.905 2 48.143
3 39 Guarneri, Davide ITA FMI Yamaha 40:06.707 19 0:36.610 0:16.918 1:57.716 3 47.402
4 338 Osborne, Zach USA ACU Yamaha 40:10.389 19 0:40.292 0:03.682 1:57.958 1 47.305
5 3 Aubin, Nicolas FRA FFM Yamaha 40:13.395 19 0:43.298 0:03.006 1:55.430 1 48.341
6 121 Boog, Xavier FRA FFM Suzuki 40:15.815 19 0:45.718 0:02.420 1:57.730 2 47.397
7 21 Paulin, Gautier FRA MCM Kawasaki 40:18.768 19 0:48.671 0:02.953 1:56.879 1 47.742
8 25 Musquin, Marvin FRA FFM Honda 40:23.715 19 0:53.618 0:04.947 1:57.089 4 47.656

9 91 Karro, Matiss LAT LAMSF Suzuki 40:24.751 19 0:54.654 0:01.036 1:58.271 1 47.18
10 23 Tonus, Arnaud SUI FMS KTM 40:24.951 19 0:54.854 0:00.200 1:58.652 2 47.028
11 335 Verbruggen, Dennis BEL FMB Honda 40:31.520 19 1:01.423 0:06.569 1:58.798 2 46.97
12 13 Monni, Manuel ITA FMI Yamaha 40:35.531 19 1:05.434 0:04.011 1:59.178 6 46.821
13 55 Kras, Mike NED KNMV KTM 40:39.275 19 1:09.178 0:03.744 1:58.748 1 46.99
14 18 Brakke, Herjan NED KNMV Honda 40:45.395 19 1:15.298 0:06.120 1:59.617 4 46.649
15 202 Larrieu, Loic FRA FFM Yamaha 40:45.877 19 1:15.780 0:00.482 1:58.881 8 46.938
16 501 Lupino, Alessandro ITA FMI Yamaha 40:46.492 19 1:16.395 0:00.615 1:59.596 4 46.657
17 34 Roelants, Joel BEL FMB KTM 40:47.213 19 1:17.116 0:00.721 1:56.573 4 47.867
18 7 Sword, Stephen GBR ACU KTM 41:00.731 19 1:30.634 0:13.518 1:59.606 4 46.653
19 27 Schiffer, Marcus GER DMSB KTM 41:01.289 19 1:31.192 0:00.558 1:56.456 1 47.915
20 30 Klein Kromhof, Ceriel NED KNMV KTM 41:06.003 19 1:35.906 0:04.714 1:58.031 1 47.276
21 175 Larsen, Nikolai DEN DMU Suzuki 41:14.562 19 1:44.465 0:08.559 1:58.983 2 46.897
22 119 Pocock, Mel GBR ACU Yamaha 41:19.291 19 1:49.194 0:04.729 1:59.345 3 46.755
23 45 Nicholls, Jake GBR ACU KTM 41:21.103 19 1:51.006 0:01.812 2:01.156 4 46.056
24 89 van Horebeek, Jeremy BEL FMB KTM 39:37.578 18 1 lap(s) 1 lap(s) 2:00.129 4 46.45
25 51 Smitka, Petr CZE ACCR KTM 39:58.257 18 1 lap(s) 0:20.679 2:00.730 3 46.219
26 33 Soubeyras, Cedric FRA FFM Yamaha 40:02.719 18 1 lap(s) 0:04.462 2:04.022 6 44.992
27 131 Michek, Martin CZE ACCR TM 40:08.307 18 1 lap(s) 0:05.588 2:03.368 2 45.231
28 153 Maddii, Marco ITA FMI Suzuki 40:20.803 18 1 lap(s) 0:12.496 2:03.319 3 45.249
29 14 Philippaerts, Deny ITA FMI Yamaha 40:25.635 18 1 lap(s) 0:04.832 2:02.867 3 45.415
30 75 Triest, Nick BEL FMB KTM 40:40.166 18 1 lap(s) 0:14.531 2:00.760 4 46.207
31 44 Kojima, Yohei JPN MFJ Suzuki 36:39.407 16 3 lap(s) 2 lap(s) 2:01.337 2 45.988
32 685 Lenoir, Steven FRA FFM Yamaha 39:59.479 15 4 lap(s) 1 lap(s) 2:02.765 3 45.453
33 56 Bobryshev, Evgeny RUS MFR Yamaha 30:20.292 14 5 lap(s) 1 lap(s) 1:59.103 3 46.85
34 183 Frossard, Steven FRA FFM Kawasaki 31:00.137 14 5 lap(s) 0:39.845 2:00.573 2 46.279
35 519 Rombaut, Loic FRA FFM Kawasaki 30:20.052 13 6 lap(s) 1 lap(s) 2:02.459 2 45.566
36 64 Vongsana, Khounsith FRA FFM Honda 30:31.757 13 6 lap(s) 0:11.705 2:00.542 9 46.291
37 47 Leuret, Pascal FRA FFM Honda 26:52.241 12 7 lap(s) 1 lap(s) 2:01.985 5 45.743

38 69 Avis, Wyatt RSA MSA Honda 4:39.914 1 18 lap(s) 11 lap(s) 2:36.967 1 35.549

MX2 – Grand Prix Race 2 Classification
Pos Nr Rider Nat. Fed. Bike Time laps Diff. First Diff. Prev. Bestlaptime in lap Speed

1 5 Goncalves, Rui POR FNM KTM 40:09.337 19 0:00.000 0:00.000 1:58.599 12 47.049
2 3 Aubin, Nicolas FRA FFM Yamaha 40:29.315 19 0:19.978 0:19.978 1:58.300 1 47.168
3 4 Simpson, Shaun GBR MCUI KTM 40:33.700 19 0:24.363 0:04.385 1:58.034 1 47.275
4 21 Paulin, Gautier FRA MCM Kawasaki 40:41.400 19 0:32.063 0:07.700 1:59.244 2 46.795
5 89 van Horebeek, Jeremy BEL FMB KTM 40:43.827 19 0:34.490 0:02.427 1:59.093 1 46.854
6 34 Roelants, Joel BEL FMB KTM 40:47.660 19 0:38.323 0:03.833 2:00.565 16 46.282
7 338 Osborne, Zach USA ACU Yamaha 41:04.880 19 0:55.543 0:17.220 2:00.853 2 46.172
8 39 Guarneri, Davide ITA FMI Yamaha 41:07.360 19 0:58.023 0:02.480 2:00.025 4 46.49
9 202 Larrieu, Loic FRA FFM Yamaha 41:07.765 19 0:58.428 0:00.405 1:59.830 2 46.566
10 27 Schiffer, Marcus GER DMSB KTM 41:11.468 19 1:02.131 0:03.703 2:01.285 2 46.007
11 183 Frossard, Steven FRA FFM Kawasaki 41:13.738 19 1:04.401 0:02.270 2:01.090 4 46.081
12 25 Musquin, Marvin FRA FFM Honda 41:18.134 19 1:08.797 0:04.396 1:59.955 2 46.517

13 335 Verbruggen, Dennis BEL FMB Honda 41:21.351 19 1:12.014 0:03.217 2:01.027 6 46.105
14 13 Monni, Manuel ITA FMI Yamaha 41:26.700 19 1:17.363 0:05.349 2:00.987 6 46.121
15 121 Boog, Xavier FRA FFM Suzuki 41:28.302 19 1:18.965 0:01.602 2:00.582 2 46.276
16 23 Tonus, Arnaud SUI FMS KTM 41:29.767 19 1:20.430 0:01.465 2:02.151 3 45.681
17 55 Kras, Mike NED KNMV KTM 41:38.596 19 1:29.259 0:08.829 2:03.169 4 45.304
18 7 Sword, Stephen GBR ACU KTM 41:39.920 19 1:30.583 0:01.324 2:01.530 19 45.915
19 64 Vongsana, Khounsith FRA FFM Honda 41:41.205 19 1:31.868 0:01.285 2:03.645 19 45.129
20 91 Karro, Matiss LAT LAMSF Suzuki 41:56.745 19 1:47.408 0:15.540 2:00.169 1 46.435
21 18 Brakke, Herjan NED KNMV Honda 42:11.635 19 2:02.298 0:14.890 2:03.383 2 45.225
22 501 Lupino, Alessandro ITA FMI Yamaha 42:12.818 19 2:03.481 0:01.183 2:03.717 4 45.103
23 75 Triest, Nick BEL FMB KTM 40:16.178 18 1 lap(s) 1 lap(s) 2:04.737 7 44.734
24 519 Rombaut, Loic FRA FFM Kawasaki 40:21.223 18 1 lap(s) 0:05.045 2:03.056 3 45.345
25 175 Larsen, Nikolai DEN DMU Suzuki 40:33.314 18 1 lap(s) 0:12.091 2:02.026 1 45.728
26 685 Lenoir, Steven FRA FFM Yamaha 40:34.960 18 1 lap(s) 0:01.646 2:05.011 2 44.636
27 51 Smitka, Petr CZE ACCR KTM 40:35.371 18 1 lap(s) 0:00.411 2:04.658 4 44.762
28 30 Klein Kromhof, Ceriel NED KNMV KTM 40:58.816 18 1 lap(s) 0:23.445 2:03.551 2 45.164
29 33 Soubeyras, Cedric FRA FFM Yamaha 41:06.455 18 1 lap(s) 0:07.639 2:05.056 5 44.62
30 153 Maddii, Marco ITA FMI Suzuki 40:44.422 17 2 lap(s) 1 lap(s) 2:05.845 4 44.34
31 45 Nicholls, Jake GBR ACU KTM 28:48.979 12 7 lap(s) 5 lap(s) 2:03.212 3 45.288
32 56 Bobryshev, Evgeny RUS MFR Yamaha 24:32.999 7 12 lap(s) 5 lap(s) 2:01.196 3 46.041
33 14 Philippaerts, Deny ITA FMI Yamaha 11:19.924 4 15 lap(s) 3 lap(s) 2:08.923 2 43.282
34 131 Michek, Martin CZE ACCR TM 2:11.779 0 19 lap(s) 4 lap(s) 0:00.000 0 0

goncalvesbenelux0409

MX2 GP Classification
Pos Nr Rider Nat. Fed. Bike Race 1 Race 2 Total

1 5 Goncalves, Rui POR FNM KTM 22 25 47
2 4 Simpson, Shaun GBR MCUI KTM 25 20 45
3 3 Aubin, Nicolas FRA FFM Yamaha 16 22 38
4 39 Guarneri, Davide ITA FMI Yamaha 20 13 33
5 21 Paulin, Gautier FRA MCM Kawasaki 14 18 32
6 338 Osborne, Zach USA ACU Yamaha 18 14 32
7 25 Musquin, Marvin FRA FFM Honda 13 9 22
8 121 Boog, Xavier FRA FFM Suzuki 15 6 21

9 34 Roelants, Joel BEL FMB KTM 4 15 19
10 202 Larrieu, Loic FRA FFM Yamaha 6 12 18
11 335 Verbruggen, Dennis BEL FMB Honda 10 8 18
12 89 van Horebeek, Jeremy BEL FMB KTM 0 16 16
13 13 Monni, Manuel ITA FMI Yamaha 9 7 16
14 23 Tonus, Arnaud SUI FMS KTM 11 5 16
15 27 Schiffer, Marcus GER DMSB KTM 2 11 13
16 91 Karro, Matiss LAT LAMSF Suzuki 12 1 13
17 55 Kras, Mike NED KNMV KTM 8 4 12
18 183 Frossard, Steven FRA FFM Kawasaki 0 10 10
19 18 Brakke, Herjan NED KNMV Honda 7 0 7
20 7 Sword, Stephen GBR ACU KTM 3 3 6
21 501 Lupino, Alessandro ITA FMI Yamaha 5 0 5
22 64 Vongsana, Khounsith FRA FFM Honda 0 2 2
23 175 Larsen, Nikolai DEN DMU Suzuki 1 0 1
24 75 Triest, Nick BEL FMB KTM 0 0 0
25 519 Rombaut, Loic FRA FFM Kawasaki 0 0 0
26 685 Lenoir, Steven FRA FFM Yamaha 0 0 0

27 51 Smitka, Petr CZE ACCR KTM 0 0 0
28 30 Klein Kromhof, Ceriel NED KNMV KTM 0 0 0
29 33 Soubeyras, Cedric FRA FFM Yamaha 0 0 0
30 153 Maddii, Marco ITA FMI Suzuki 0 0 0
31 45 Nicholls, Jake GBR ACU KTM 0 0 0
32 56 Bobryshev, Evgeny RUS MFR Yamaha 0 0 0
33 14 Philippaerts, Deny ITA FMI Yamaha 0 0 0
34 131 Michek, Martin CZE ACCR TM 0 0 0
35 119 Pocock, Mel GBR ACU Yamaha 0 0 0
36 44 Kojima, Yohei JPN MFJ Suzuki 0 0 0
37 47 Leuret, Pascal FRA FFM Honda 0 0 0
38 69 Avis, Wyatt RSA MSA Honda 0 0 0

MX2 World Championship Classification
Pos Nr Rider Nat. Total ITA BUL TUR BEN POR CAT GBR FRA GER LAT SWE BEL CZE NED BRA
1 21 Paulin, G. FRA 140 25-0 22-22 25-14 14-18 - - - - - - - - - - - - - - - - - - - - - - - -
2 25 Musquin, M. FRA 125 20-0 25-20 16-22 13-9 - - - - - - - - - - - - - - - - - - - - - - - -

3 39 Guarneri, D. ITA 111 18-0 16-16 13-15 20-13 - - - - - - - - - - - - - - - - - - - - - - - -
4 338 Osborne, Zach USA 100 0-0 15-8 20-25 18-14 - - - - - - - - - - - - - - - - - - - - - - - -
5 4 Simpson, Shaun GBR 97 10-0 13-14 5-10 25-20 - - - - - - - - - - - - - - - - - - - - - - - -
6 121 Boog, Xavier FRA 94 9-0 18-18 15-13 15-6 - - - - - - - - - - - - - - - - - - - - - - - -
7 3 Aubin, Nicolas FRA 85 14-0 20-13 0-0 16-22 - - - - - - - - - - - - - - - - - - - - - - - -
8 5 Goncalves, Rui POR 78 0-0 9-15 0-7 22-25 - - - - - - - - - - - - - - - - - - - - - - - -
9 183 Frossard, S. FRA 63 8-0 0-25 0-20 0-10 - - - - - - - - - - - - - - - - - - - - - - - -
10 27 Schiffer, M. GER 55 5-0 7-12 0-18 2-11 - - - - - - - - - - - - - - - - - - - - - - - -
11 13 Monni, Manuel ITA 52 0-0 0-6 18-12 9-7 - - - - - - - - - - - - - - - - - - - - - - - -
12 34 Roelants, Joel BEL 49 16-0 12-2 0-0 4-15 - - - - - - - - - - - - - - - - - - - - - - - -
13 23 Tonus, Arnaud SUI 46 0-0 14-11 4-1 11-5 - - - - - - - - - - - - - - - - - - - - - - - -
14 64 Vongsana, K. FRA 44 0-0 11-0 22-9 0-2 - - - - - - - - - - - - - - - - - - - - - - - -
15 202 Larrieu, Loic FRA 39 0-0 4-7 7-3 6-12 - - - - - - - - - - - - - - - - - - - - - - - -
16 89 van Horebeek, J. BEL 38 22-0 0-0 - - 0-16 - - - - - - - - - - - - - - - - - - - - - - - -
17 7 Sword, Stephen GBR 38 4-0 0-0 12-16 3-3 - - - - - - - - - - - - - - - - - - - - - - - -
18 37 Teillet, V. FRA 37 12-0 2-9 14-0 - - - - - - - - - - - - - - - - - - - - - - - - - -
19 501 Lupino, A. ITA 35 15-0 3-10 0-2 5-0 - - - - - - - - - - - - - - - - - - - - - - - -
20 91 Karro, Matiss LAT 29 0-0 0-0 8-8 12-1 - - - - - - - - - - - - - - - - - - - - - - - -
21 47 Leuret, Pascal FRA 25 0-0 10-0 10-5 0-0 - - - - - - - - - - - - - - - - - - - - - - - -
22 45 Nicholls, Jake GBR 22 11-0 0-0 11-0 0-0 - - - - - - - - - - - - - - - - - - - - - - - -
23 56 Bobryshev, E. RUS 22 0-0 5-0 6-11 0-0 - - - - - - - - - - - - - - - - - - - - - - - -
24 69 Avis, Wyatt RSA 19 0-0 8-4 1-6 0-0 - - - - - - - - - - - - - - - - - - - - - - - -
25 335 Verbruggen, D. BEL 18 0-0 0-0 - - 10-8 - - - - - - - - - - - - - - - - - - - - - - - -
26 153 Maddii, Marco ITA 13 13-0 0-0 0-0 0-0 - - - - - - - - - - - - - - - - - - - - - - - -
27 44 Kojima, Yohei JPN 13 0-0 1-5 3-4 0-0 - - - - - - - - - - - - - - - - - - - - - - - -
28 55 Kras, Mike NED 12 - - - - - - 8-4 - - - - - - - - - - - - - - - - - - - - - - - -
29 175 Larsen, N. DEN 12 0-0 6-3 2-0 1-0 - - - - - - - - - - - - - - - - - - - - - - - -
30 33 Soubeyras, C. FRA 10 0-0 0-1 9-0 0-0 - - - - - - - - - - - - - - - - - - - - - - - -
31 18 Brakke, Herjan NED 7 - - - - - - 7-0 - - - - - - - - - - - - - - - - - - - - - - - -
32 30 Klein Kromhof, C. NED 7 7-0 0-0 0-0 0-0 - - - - - - - - - - - - - - - - - - - - - - - -
33 14 Philippaerts, D. ITA 6 6-0 0-0 0-0 0-0 - - - - - - - - - - - - - - - - - - - - - - - -
34 81 Tarroux, J. FRA 3 3-0 0-0 - - - - - - - - - - - - - - - - - - - - - - - - - - - -
35 519 Rombaut, Loic FRA 2 2-0 0-0 0-0 0-0 - - - - - - - - - - - - - - - - - - - - - - - -
36 12 Chiodi, A. ITA 1 1-0 - - - - - - - - - - - - - - - - - - - - - - - - - - - - - -
37 119 Pocock, Mel GBR 0 - - - - - - 0-0 - - - - - - - - - - - - - - - - - - - - - - - -
38 131 Michek, Martin CZE 0 0-0 0-0 0-0 0-0 - - - - - - - - - - - - - - - - - - - - - - - -
39 17 Clermont, J. FRA 0 0-0 0-0 0-0 - - - - - - - - - - - - - - - - - - - - - - - - - -
40 51 Smitka, Petr CZE 0 0-0 0-0 0-0 0-0 - - - - - - - - - - - - - - - - - - - - - - - -
41 685 Lenoir, Steven FRA 0 0-0 0-0 0-0 0-0 - - - - - - - - - - - - - - - - - - - - - - - -
42 75 Triest, Nick BEL 0 - - - - - - 0-0 - - - - - - - - - - - - - - - - - - - - - - - -
43 95 Justs, Augusts LAT 0 0-0 0-0 0-0 - - - - - - - - - - - - - - - - - - - - - - - - - -
44 49 Iilioski, H. MKD 0 - - - - 0-0 - - - - - - - - - - - - - - - - - - - - - - - - - -
45 31 Kolev, Nikolay BUL 0 - - 0-0 - - - - - - - - - - - - - - - - - - - - - - - - - - - -
46 110 Nurcan, Ata TUR 0 - - - - 0-0 - - - - - - - - - - - - - - - - - - - - - - - - - -
47 32 Yovchev, N. BUL 0 - - 0-0 - - - - - - - - - - - - - - - - - - - - - - - - - - - -
48 22 Boissiere, A. FRA 0 0-0 - - - - - - - - - - - - - - - - - - - - - - - - - - - - - -
VETERANS FIRST RACE
Pos Nr Rider Nat. Fed. Bike Time laps Diff. First Diff. Prev. Bestlaptime in lap Speed

1 40 Nilsson, Mats SWE SVEMO Yamaha 25:18.023 11 0:00.000 0:00.000 2:03.237 2 45.279
2 1 Iven, Peter BEL FMB Honda 25:21.429 11 0:03.406 0:03.406 2:05.045 3 44.624
3 10 Puzar, Alessandro ITA FMI Honda 25:50.304 11 0:32.281 0:28.875 2:05.973 4 44.295
4 23 van Grinsven, Ton NED KNMV KTM 26:31.208 11 1:13.185 0:40.904 2:10.889 3 42.632
5 47 Blancquaert, Jan BEL FMB Suzuki 26:36.698 11 1:18.675 0:05.490 2:11.508 3 42.431
6 65 Hendrickx, Erwin NED KNMV Honda 26:44.605 11 1:26.582 0:07.907 2:09.493 3 43.091
7 66 Dijkstra, Koos NED KNMV Honda 26:46.526 11 1:28.503 0:01.921 2:10.755 7 42.675
8 178 Bal, Pascal BEL FMB KTM 26:56.654 11 1:38.631 0:10.128 2:11.819 2 42.331
9 32 LherIteau, Christophe FRA FFM Kawasaki 26:58.696 11 1:40.673 0:02.042 2:12.879 4 41.993
10 130 Fors, Thierry BEL FMB Kawasaki 27:27.904 11 2:09.881 0:29.208 2:11.463 1 42.445
11 38 Krestinov, Andres EST EMF KTM 25:28.948 10 1 lap(s) 1 lap(s) 2:16.770 3 40.798
12 15 Aerts, Johan BEL FMB Yamaha 25:39.793 10 1 lap(s) 0:10.845 2:17.161 10 40.682
13 39 Engman, Reio EST EMF Yamaha 25:59.395 10 1 lap(s) 0:19.602 2:18.872 4 40.181
14 70 Bergsma, Peter NED KNMV KTM 26:15.621 10 1 lap(s) 0:16.226 2:15.694 1 41.122
15 101 Looman, Eddie NED KNMV Honda 26:21.270 10 1 lap(s) 0:05.649 2:21.688 3 39.382
16 14 Makarov, Juri EST EMF Honda 26:59.280 10 1 lap(s) 0:38.010 2:25.278 1 38.409
17 21 King, Darryl NZL MNZ Yamaha 21:56.509 9 2 lap(s) 1 lap(s) 2:03.229 3 45.282
18 110 Vilders, Janis LAT LAMSF Suzuki 25:55.033 9 2 lap(s) 3:58.524 2:33.688 1 36.307
19 71 Mieuzet, Dominique FRA FFM Honda 25:55.402 9 2 lap(s) 0:00.369 2:31.223 9 36.899
20 99 Povars, Igors GER LAMSF Honda 26:08.219 9 2 lap(s) 0:12.817 2:35.650 6 35.85
21 18 Moradi, Mehrdad IRN FMB Yamaha 26:33.479 9 2 lap(s) 0:25.260 2:34.715 2 36.066
22 24 Maris, Alain BEL FMB Honda 27:01.948 9 2 lap(s) 0:28.469 2:37.289 7 35.476
23 25 Massara, Matteo ITA FMI KTM 27:05.211 9 2 lap(s) 0:03.263 2:39.307 2 35.027
24 67 Koops, Harry NED KNMV Honda 27:05.950 9 2 lap(s) 0:00.739 2:39.694 1 34.942
25 85 Stolyarov, Victor RUS MFR KTM 27:18.768 9 2 lap(s) 0:12.818 2:42.924 5 34.249
26 43 Ulianzev, Ivan RUS MFR KTM 27:52.790 9 2 lap(s) 0:34.022 2:36.427 1 35.672
27 222 Medico, Jean-Pierre FRA FFM Yamaha 25:37.746 8 3 lap(s) 1 lap(s) 2:48.608 1 33.095
28 29 McEvoy, Michael GBR ACU Honda 6:51.798 1 10 lap(s) 7 lap(s) 3:46.464 1 24.64
999 51 Verherstraeten, Freddy BEL FMB Kawasaki 25:42.476 10 1 lap(s) -9 lap(s) 2:15.734 2 41.11

VETERANS SECONDE RACE
Pos Nr Rider Nat. Fed. Bike Time laps Diff. First Diff. Prev. Bestlaptime in lap Speed

1 40 Nilsson, Mats SWE SVEMO Yamaha 24:20.765 11 0:00.000 0:00.000 2:01.310 8 45.998
2 1 Iven, Peter BEL FMB Honda 24:21.631 11 0:00.866 0:00.866 2:00.944 7 46.137
3 10 Puzar, Alessandro ITA FMI Honda 24:38.830 11 0:18.065 0:17.199 2:02.081 4 45.707
4 65 Hendrickx, Erwin NED KNMV Honda 25:30.639 11 1:09.874 0:51.809 2:04.542 2 44.804
5 23 van Grinsven, Ton NED KNMV KTM 25:47.385 11 1:26.620 0:16.746 2:06.037 2 44.273
6 178 Bal, Pascal BEL FMB KTM 25:51.560 11 1:30.795 0:04.175 2:05.782 4 44.362
7 51 Verherstraeten, Freddy BEL FMB Kawasaki 26:04.434 11 1:43.669 0:12.874 2:09.515 1 43.084
8 66 Dijkstra, Koos NED KNMV Honda 26:15.916 11 1:55.151 0:11.482 2:09.294 6 43.157
9 130 Fors, Thierry BEL FMB Kawasaki 26:27.165 11 2:06.400 0:11.249 2:08.533 4 43.413
10 32 LherIteau, Christophe FRA FFM Kawasaki 26:34.774 11 2:14.009 0:07.609 2:08.493 7 43.426
11 47 Blancquaert, Jan BEL FMB Suzuki 24:22.895 10 1 lap(s) 1 lap(s) 2:08.422 2 43.45
12 15 Aerts, Johan BEL FMB Yamaha 24:53.417 10 1 lap(s) 0:30.522 2:11.798 5 42.338
13 39 Engman, Reio EST EMF Yamaha 24:57.240 10 1 lap(s) 0:03.823 2:13.706 5 41.733
14 70 Bergsma, Peter NED KNMV KTM 25:18.009 10 1 lap(s) 0:20.769 2:12.623 2 42.074
15 14 Makarov, Juri EST EMF Honda 25:39.477 10 1 lap(s) 0:21.468 2:14.780 1 41.401
16 38 Krestinov, Andres EST EMF KTM 26:01.398 10 1 lap(s) 0:21.921 2:13.104 2 41.922
17 101 Looman, Eddie NED KNMV Honda 26:26.473 10 1 lap(s) 0:25.075 2:20.669 7 39.668
18 110 Vilders, Janis LAT LAMSF Suzuki 24:59.150 9 2 lap(s) 1 lap(s) 2:27.258 2 37.893
19 43 Ulianzev, Ivan RUS MFR KTM 25:28.470 9 2 lap(s) 0:29.320 2:28.744 1 37.514
20 25 Massara, Matteo ITA FMI KTM 25:49.155 9 2 lap(s) 0:20.685 2:32.627 1 36.56
21 24 Maris, Alain BEL FMB Honda 25:50.162 9 2 lap(s) 0:01.007 2:31.341 1 36.87
22 71 Mieuzet, Dominique FRA FFM Honda 25:55.910 9 2 lap(s) 0:05.748 2:29.344 1 37.363
23 99 Povars, Igors GER LAMSF Honda 26:10.110 9 2 lap(s) 0:14.200 2:29.704 1 37.274
24 85 Stolyarov, Victor RUS MFR KTM 26:24.693 9 2 lap(s) 0:14.583 2:36.336 1 35.692
25 67 Koops, Harry NED KNMV Honda 26:32.635 9 2 lap(s) 0:07.942 2:33.444 1 36.365
26 18 Moradi, Mehrdad IRN FMB Yamaha 24:36.561 8 3 lap(s) 1 lap(s) 2:32.359 2 36.624
27 222 Medico, Jean-Pierre FRA FFM Yamaha 24:44.628 8 3 lap(s) 0:08.067 2:40.289 1 34.812
28 29 McEvoy, Michael GBR ACU Honda 26:40.841 6 5 lap(s) 2 lap(s) 2:49.512 1 32.918

VETERANS OVERALL
Pos Nr Rider Nat. Fed. Bike Race 1 Race 2 Total

1 40 Nilsson, Mats SWE SVEMO Yamaha 25 25 50
2 1 Iven, Peter BEL FMB Honda 22 22 44
3 10 Puzar, Alessandro ITA FMI Honda 20 20 40
4 23 van Grinsven, Ton NED KNMV KTM 18 16 34
5 65 Hendrickx, Erwin NED KNMV Honda 15 18 33
6 178 Bal, Pascal BEL FMB KTM 13 15 28
7 66 Dijkstra, Koos NED KNMV Honda 14 13 27
8 47 Blancquaert, Jan BEL FMB Suzuki 16 10 26
9 130 Fors, Thierry BEL FMB Kawasaki 11 12 23
10 32 LherIteau, Christophe FRA FFM Kawasaki 12 11 23
11 15 Aerts, Johan BEL FMB Yamaha 9 9 18
12 39 Engman, Reio EST EMF Yamaha 8 8 16
13 38 Krestinov, Andres EST EMF KTM 10 5 15
14 51 Verherstraeten, Freddy BEL FMB Kawasaki 0 14 14
15 70 Bergsma, Peter NED KNMV KTM 7 7 14
16 14 Makarov, Juri EST EMF Honda 5 6 11
17 101 Looman, Eddie NED KNMV Honda 6 4 10
18 110 Vilders, Janis LAT LAMSF Suzuki 3 3 6
19 21 King, Darryl NZL MNZ Yamaha 4 0 4
20 43 Ulianzev, Ivan RUS MFR KTM 0 2 2
21 71 Mieuzet, Dominique FRA FFM Honda 2 0 2
22 25 Massara, Matteo ITA FMI KTM 0 1 1
23 99 Povars, Igors GER LAMSF Honda 1 0 1
24 24 Maris, Alain BEL FMB Honda 0 0 0
25 85 Stolyarov, Victor RUS MFR KTM 0 0 0
26 67 Koops, Harry NED KNMV Honda 0 0 0
27 18 Moradi, Mehrdad IRN FMB Yamaha 0 0 0
28 222 Medico, Jean-Pierre FRA FFM Yamaha 0 0 0
29 29 McEvoy, Michael GBR ACU Honda 0 0 0

VETERANS CHAMPIONSHIP
Pos Nr Rider Nat. Total ITA BEN GBR LAT BEL

1 1 Iven, Peter BEL 94 25-25 22-22 - - - - - -
2 40 Nilsson, Mats SWE 88 20-18 25-25 - - - - - -
3 10 Puzar, A. ITA 72 22-10 20-20 - - - - - -
4 47 Blancquaert, J. BEL 62 14-22 16-10 - - - - - -
5 32 LherIteau, C. FRA 58 15-20 12-11 - - - - - -
6 65 Hendrickx, E. NED 56 11-12 15-18 - - - - - -
7 178 Bal, Pascal BEL 49 10-11 13-15 - - - - - -
8 66 Dijkstra, Koos NED 43 8-8 14-13 - - - - - -
9 130 Fors, Thierry BEL 40 12-5 11-12 - - - - - -
10 23 van Grinsven, T. NED 34 - - 18-16 - - - - - -
11 28 House, Terry GBR 31 16-15 - - - - - - - -
12 21 King, Darryl NZL 30 13-13 4-0 - - - - - -
13 38 Krestinov, A. EST 30 6-9 10-5 - - - - - -
14 14 Makarov, Juri EST 26 1-14 5-6 - - - - - -
15 242 Gajser, B. SLO 21 5-16 - - - - - - - -
16 74 Clochet, Denis FRA 20 18-2 - - - - - - - -
17 15 Aerts, Johan BEL 18 - - 9-9 - - - - - -
18 51 Verherstraeten, F. BEL 16 2-0 0-14 - - - - - -
19 39 Engman, Reio EST 16 - - 8-8 - - - - - -
20 70 Bergsma, Peter NED 14 - - 7-7 - - - - - -
21 101 Looman, Eddie NED 10 - - 6-4 - - - - - -
22 111 Heinrich, R. CZE 9 9-0 - - - - - - - -
23 99 Povars, Igors GER 8 0-7 1-0 - - - - - -
24 43 Ulianzev, Ivan RUS 8 0-6 0-2 - - - - - -
25 9 Mironovs, J. LAT 8 4-4 - - - - - - - -
26 19 Dokoupil, Petr CZE 7 7-0 - - - - - - - -
27 110 Vilders, Janis LAT 6 - - 3-3 - - - - - -
28 69 Turci, Fabio ITA 4 3-1 - - - - - - - -
29 24 Maris, Alain BEL 3 0-3 0-0 - - - - - -
30 71 Mieuzet, D. FRA 2 0-0 2-0 - - - - - -
31 25 Massara, M. ITA 1 0-0 0-1 - - - - - -
32 18 Moradi, M. IRN 0 0-0 0-0 - - - - - -
33 54 Alvarez, F. ESP 0 0-0 - - - - - - - -
34 30 Befera, Mauro ITA 0 0-0 - - - - - - - -
35 67 Koops, Harry NED 0 0-0 0-0 - - - - - -
36 85 Stolyarov, V. RUS 0 - - 0-0 - - - - - -
37 31 de Santis, M. ITA 0 0-0 - - - - - - - -
38 53 Navarro, C. ESP 0 0-0 - - - - - - - -
39 64 Romano, R. FRA 0 0-0 - - - - - - - -
40 222 Medico, J. FRA 0 0-0 0-0 - - - - - -
41 29 McEvoy, M. GBR 0 0-0 0-0 - - - - - -
42 77 Fanton, M. ITA 0 0-0 - - - - - - - -
43 48 Bartolini, V. ITA 0 0-0 - - - - - - - -
44 55 Povars, A. LAT 0 0-0 - - - - - - - -
45 75 Kermavner, B. SLO 0 0-0 - - - - - - - -

(Crédit Photos : Ray Archer)

youthstreammxsponso09

A voir aussi :

Le commentaires sont fermés.